Time;durP1;ratioP1;P1;durP2;ratioP2;P2;SDS_P1;SDS_P2;PMS_P1;PMS_P2;Temp;Humidity;BMP_temperature;BMP_pressure;BME280_temperature;BME280_humidity;BME280_pressure;Samples;Min_cycle;Max_cycle;Signal;HPM_P1;HPM_P2
2021/07/15 00:01:45;;;;;;;51.90;34.35;;;19.60;99.90;;;;;;5113638;28;20039;-71
2021/07/15 00:04:12;;;;;;;56.10;34.75;;;19.60;99.90;;;;;;5114126;28;20111;-71
2021/07/15 00:06:38;;;;;;;53.55;35.65;;;19.60;99.90;;;;;;5113873;28;20048;-71
2021/07/15 00:09:04;;;;;;;56.25;31.85;;;19.60;99.90;;;;;;5112344;28;20091;-71
2021/07/15 00:11:34;;;;;;;48.58;30.55;;;19.60;99.90;;;;;;5113807;28;20039;-71
2021/07/15 00:14:00;;;;;;;51.72;34.22;;;19.60;99.90;;;;;;5113702;28;20036;-71
2021/07/15 00:16:26;;;;;;;42.55;31.27;;;19.50;99.90;;;;;;5117150;28;20036;-71
2021/07/15 00:18:52;;;;;;;53.97;33.85;;;19.50;99.90;;;;;;5117593;28;20063;-71
2021/07/15 00:21:22;;;;;;;47.72;31.73;;;19.50;99.90;;;;;;5117704;28;20399;-70
2021/07/15 00:23:49;;;;;;;53.13;35.72;;;19.50;99.90;;;;;;5117984;28;20036;-71
2021/07/15 00:26:17;;;;;;;57.25;36.28;;;19.50;99.90;;;;;;5117981;28;20035;-71
2021/07/15 00:28:43;;;;;;;49.63;34.08;;;19.50;99.90;;;;;;5117160;28;20452;-71
2021/07/15 00:31:09;;;;;;;56.10;36.13;;;19.50;99.90;;;;;;5116266;28;20126;-70
2021/07/15 00:33:35;;;;;;;55.47;36.88;;;19.50;99.90;;;;;;5117404;28;20483;-71
2021/07/15 00:36:02;;;;;;;52.35;34.75;;;19.50;99.90;;;;;;5117851;28;20039;-71
2021/07/15 00:38:29;;;;;;;53.58;33.22;;;19.50;99.90;;;;;;5117411;28;20039;-71
2021/07/15 00:40:55;;;;;;;54.10;33.50;;;19.50;99.90;;;;;;5117482;28;20130;-71
2021/07/15 00:43:21;;;;;;;51.40;34.33;;;19.40;99.90;;;;;;5117431;27;20035;-71
2021/07/15 00:45:47;;;;;;;55.60;34.58;;;19.50;99.90;;;;;;5117656;28;20047;-71
2021/07/15 00:48:13;;;;;;;49.58;34.65;;;19.60;99.90;;;;;;5116430;28;20047;-71
2021/07/15 00:50:39;;;;;;;53.33;35.58;;;19.50;99.90;;;;;;5116849;28;20039;-71
2021/07/15 00:53:06;;;;;;;50.50;33.75;;;19.50;99.90;;;;;;5117218;28;20458;-71
2021/07/15 00:55:37;;;;;;;53.33;34.88;;;19.40;99.90;;;;;;5117325;28;20040;-71
2021/07/15 00:58:05;;;;;;;50.20;32.40;;;19.50;99.90;;;;;;5117512;28;20487;-71
2021/07/15 01:00:32;;;;;;;58.17;35.10;;;19.50;99.90;;;;;;5116482;28;20086;-71
2021/07/15 01:02:57;;;;;;;53.60;34.00;;;19.50;99.90;;;;;;5116943;28;20035;-71
2021/07/15 01:05:26;;;;;;;51.22;32.88;;;19.40;99.90;;;;;;5116806;28;20035;-71
2021/07/15 01:07:52;;;;;;;47.08;32.42;;;19.50;99.90;;;;;;5117216;28;20088;-71
2021/07/15 01:10:22;;;;;;;51.80;34.63;;;19.40;99.90;;;;;;5116295;28;20032;-71
2021/07/15 01:13:15;;;;;;;56.72;34.10;;;19.40;99.90;;;;;;5116699;28;20051;-71
2021/07/15 01:15:58;;;;;;;56.25;33.50;;;19.40;99.90;;;;;;5116715;28;20027;-71
2021/07/15 01:18:50;;;;;;;55.75;36.03;;;19.40;99.90;;;;;;5116568;28;20449;-72
2021/07/15 01:21:54;;;;;;;69.20;36.60;;;19.40;99.90;;;;;;5116631;28;20400;-71
2021/07/15 01:24:25;;;;;;;54.97;35.80;;;19.40;99.90;;;;;;5116617;28;20269;-71
2021/07/15 01:27:07;;;;;;;60.70;36.70;;;19.40;99.90;;;;;;5116568;28;20070;-71
2021/07/15 01:29:51;;;;;;;59.57;33.03;;;19.30;99.90;;;;;;5116216;27;20057;-71
2021/07/15 01:32:21;;;;;;;53.80;34.95;;;19.40;99.90;;;;;;5116441;28;20452;-71
2021/07/15 01:34:50;;;;;;;52.55;34.40;;;19.40;99.90;;;;;;5116264;28;20479;-71
2021/07/15 01:37:15;;;;;;;54.88;34.35;;;19.40;99.90;;;;;;5116371;28;20040;-71
2021/07/15 01:39:45;;;;;;;65.80;37.28;;;19.30;99.90;;;;;;5115923;28;20096;-71
2021/07/15 01:42:15;;;;;;;56.90;33.97;;;19.30;99.90;;;;;;5116400;28;20044;-71
2021/07/15 01:44:41;;;;;;;63.85;35.95;;;19.30;99.90;;;;;;5116614;28;20043;-71
2021/07/15 01:47:07;;;;;;;59.50;34.80;;;19.40;99.90;;;;;;5116228;28;20046;-71
2021/07/15 01:49:34;;;;;;;63.72;36.67;;;19.30;99.90;;;;;;5115539;27;20044;-72
2021/07/15 01:52:01;;;;;;;53.13;32.88;;;19.40;99.90;;;;;;5116103;28;20040;-71
2021/07/15 01:54:28;;;;;;;62.67;35.03;;;19.40;99.90;;;;;;5114722;28;20556;-71
2021/07/15 01:56:56;;;;;;;67.20;38.78;;;19.40;99.90;;;;;;5116028;28;20035;-71
2021/07/15 01:59:27;;;;;;;59.85;36.28;;;19.40;99.90;;;;;;5115591;28;20070;-71
2021/07/15 02:01:56;;;;;;;65.85;35.83;;;19.40;99.90;;;;;;5115736;28;20036;-71
2021/07/15 02:04:23;;;;;;;64.65;35.92;;;19.40;99.90;;;;;;5115708;28;20031;-71
2021/07/15 02:06:53;;;;;;;61.20;34.55;;;19.40;99.90;;;;;;5115629;28;20444;-71
2021/07/15 02:09:20;;;;;;;58.83;35.35;;;19.40;99.90;;;;;;5115538;28;20039;-72
2021/07/15 02:11:49;;;;;;;57.08;34.15;;;19.40;99.90;;;;;;5115761;28;20039;-72
2021/07/15 02:14:16;;;;;;;60.40;32.90;;;19.40;99.90;;;;;;5115816;28;20040;-71
2021/07/15 02:16:48;;;;;;;54.17;34.83;;;19.40;99.90;;;;;;5115612;28;20106;-71
2021/07/15 02:19:15;;;;;;;58.63;35.35;;;19.40;99.90;;;;;;5115140;28;20050;-71
2021/07/15 02:21:41;;;;;;;53.08;35.60;;;19.40;99.90;;;;;;5115321;28;20038;-71
2021/07/15 02:24:10;;;;;;;55.42;33.75;;;19.40;99.90;;;;;;5114623;28;20471;-71
2021/07/15 02:26:38;;;;;;;58.55;35.45;;;19.40;99.90;;;;;;5115634;28;20032;-71
2021/07/15 02:29:05;;;;;;;56.15;32.35;;;19.40;99.90;;;;;;5114907;28;20040;-71
2021/07/15 02:31:44;;;;;;;52.50;33.65;;;19.40;99.90;;;;;;5115158;28;20046;-71
2021/07/15 02:34:19;;;;;;;57.25;34.13;;;19.40;99.90;;;;;;5115134;28;20506;-71
2021/07/15 02:36:46;;;;;;;57.13;33.33;;;19.40;99.90;;;;;;5115251;28;20051;-71
2021/07/15 02:39:12;;;;;;;53.47;34.20;;;19.40;99.90;;;;;;5114021;28;20118;-71
2021/07/15 02:41:38;;;;;;;62.33;32.45;;;19.40;99.90;;;;;;5114849;28;20471;-71
2021/07/15 02:44:04;;;;;;;57.00;34.25;;;19.40;99.90;;;;;;5115529;28;20115;-71
2021/07/15 02:46:30;;;;;;;54.17;32.95;;;19.40;99.90;;;;;;5114916;28;20553;-71
2021/07/15 02:48:57;;;;;;;57.80;34.15;;;19.40;99.90;;;;;;5114368;28;20089;-71
2021/07/15 02:51:24;;;;;;;57.95;33.75;;;19.40;99.90;;;;;;5114823;28;20044;-71
2021/07/15 02:53:50;;;;;;;53.20;32.05;;;19.40;99.90;;;;;;5114625;28;20463;-71
2021/07/15 02:56:52;;;;;;;52.08;29.95;;;19.30;99.90;;;;;;5114916;28;20483;-71
2021/07/15 02:59:40;;;;;;;47.38;29.35;;;19.40;99.90;;;;;;5105298;28;20062;-71
2021/07/15 03:02:18;;;;;;;48.88;28.25;;;19.30;99.90;;;;;;5114620;28;20555;-71
2021/07/15 03:04:53;;;;;;;48.38;28.33;;;19.30;99.90;;;;;;5114571;28;20035;-71
2021/07/15 03:07:20;;;;;;;49.38;28.55;;;19.30;99.90;;;;;;5114882;28;20108;-71
2021/07/15 03:09:50;;;;;;;41.47;26.83;;;19.30;99.90;;;;;;5114014;28;20031;-71
2021/07/15 03:12:22;;;;;;;49.08;25.90;;;19.30;99.90;;;;;;5114276;28;20043;-71
2021/07/15 03:14:51;;;;;;;42.05;25.00;;;19.30;99.90;;;;;;5114384;28;20035;-71
2021/07/15 03:17:24;;;;;;;49.85;25.42;;;19.30;99.90;;;;;;5114353;28;20157;-71
2021/07/15 03:19:52;;;;;;;41.35;23.95;;;19.30;99.90;;;;;;5113991;28;20073;-71
2021/07/15 03:22:17;;;;;;;51.15;25.45;;;19.30;99.90;;;;;;5114359;28;20032;-71
2021/07/15 03:25:02;;;;;;;41.22;25.80;;;19.30;99.90;;;;;;5114726;28;20038;-71
2021/07/15 03:27:31;;;;;;;38.65;23.63;;;19.20;99.90;;;;;;5114401;28;20040;-71
2021/07/15 03:30:00;;;;;;;41.72;23.58;;;19.20;99.90;;;;;;5113935;28;20119;-71
2021/07/15 03:32:27;;;;;;;44.00;24.40;;;19.20;99.90;;;;;;5114070;28;20050;-70
2021/07/15 03:34:54;;;;;;;41.70;22.63;;;19.20;99.90;;;;;;5114036;28;20036;-71
2021/07/15 03:37:20;;;;;;;39.22;22.25;;;19.30;99.90;;;;;;5113942;28;20388;-71
2021/07/15 03:39:51;;;;;;;36.58;21.73;;;19.30;99.90;;;;;;5113723;28;20042;-71
2021/07/15 03:42:19;;;;;;;38.03;21.15;;;19.20;99.90;;;;;;5113801;28;20039;-71
2021/07/15 03:44:46;;;;;;;36.28;21.63;;;19.30;99.90;;;;;;5113920;28;20535;-71
2021/07/15 03:47:14;;;;;;;38.33;21.92;;;19.20;99.90;;;;;;5113801;28;20040;-71
2021/07/15 03:49:42;;;;;;;45.53;21.40;;;19.20;99.90;;;;;;5113380;28;20031;-70
2021/07/15 03:52:16;;;;;;;42.83;22.25;;;19.20;99.90;;;;;;5113968;28;20044;-71
2021/07/15 03:54:44;;;;;;;45.47;21.10;;;19.20;99.90;;;;;;5114112;28;20358;-71
2021/07/15 03:57:12;;;;;;;38.72;21.23;;;19.10;99.90;;;;;;5114289;28;20429;-71
2021/07/15 03:59:51;;;;;;;48.17;20.40;;;19.20;99.90;;;;;;5113701;28;20050;-71
2021/07/15 04:02:21;;;;;;;35.00;20.38;;;19.10;99.90;;;;;;5113879;28;20548;-71
2021/07/15 04:04:52;;;;;;;37.35;19.98;;;19.10;99.90;;;;;;5114211;28;20031;-72
2021/07/15 04:07:18;;;;;;;33.80;19.35;;;19.20;99.90;;;;;;5114344;28;20035;-72
2021/07/15 04:09:46;;;;;;;44.42;21.67;;;19.10;99.90;;;;;;5113542;28;20051;-72
2021/07/15 04:12:13;;;;;;;47.22;20.90;;;19.10;99.90;;;;;;5113910;28;20588;-72
2021/07/15 04:15:04;;;;;;;45.30;23.27;;;19.10;99.90;;;;;;5114054;28;20088;-72
2021/07/15 04:17:52;;;;;;;42.38;20.77;;;19.10;99.90;;;;;;5113695;28;20059;-72
2021/07/15 04:20:21;;;;;;;40.05;21.60;;;19.10;99.90;;;;;;5113373;28;20035;-72
2021/07/15 04:22:53;;;;;;;40.70;20.98;;;19.10;99.90;;;;;;5113778;28;20048;-72
2021/07/15 04:25:23;;;;;;;49.35;21.38;;;19.10;99.90;;;;;;5113587;28;20031;-72
2021/07/15 04:27:53;;;;;;;40.75;21.70;;;19.10;99.90;;;;;;5112286;28;20047;-72
2021/07/15 04:30:19;;;;;;;43.05;21.45;;;19.10;99.90;;;;;;5113243;28;20475;-72
2021/07/15 04:32:51;;;;;;;45.38;21.75;;;19.00;99.90;;;;;;5113544;28;20035;-72
2021/07/15 04:35:19;;;;;;;40.90;21.58;;;19.00;99.90;;;;;;5113573;28;20429;-73
2021/07/15 04:37:46;;;;;;;44.20;21.88;;;19.00;99.90;;;;;;5113758;28;20135;-73
2021/07/15 04:40:16;;;;;;;46.13;22.20;;;18.90;99.90;;;;;;5113043;28;20047;-73
2021/07/15 04:42:44;;;;;;;44.85;21.92;;;18.90;99.90;;;;;;5113663;28;20043;-72
2021/07/15 04:45:11;;;;;;;44.45;23.00;;;18.90;99.90;;;;;;5113924;28;20047;-71
2021/07/15 04:47:41;;;;;;;40.28;21.20;;;18.90;99.90;;;;;;5113816;28;20044;-71
2021/07/15 04:50:13;;;;;;;37.50;21.55;;;18.90;99.90;;;;;;5112856;28;20039;-71
2021/07/15 04:52:41;;;;;;;41.10;23.02;;;19.00;99.90;;;;;;5113568;28;20047;-71
2021/07/15 04:55:08;;;;;;;43.85;22.27;;;18.90;99.90;;;;;;5113600;28;20035;-71
2021/07/15 04:57:35;;;;;;;45.85;23.45;;;18.90;99.90;;;;;;5113660;28;20080;-71
2021/07/15 05:00:04;;;;;;;41.55;22.60;;;18.90;99.90;;;;;;5112947;28;20089;-71
2021/07/15 05:02:32;;;;;;;41.22;21.95;;;18.90;99.90;;;;;;5115886;28;20062;-71
2021/07/15 05:04:58;;;;;;;47.03;22.67;;;18.90;99.90;;;;;;5117050;28;20039;-71
2021/07/15 05:07:24;;;;;;;50.35;21.00;;;18.80;99.90;;;;;;5117174;28;20115;-71
2021/07/15 05:09:50;;;;;;;44.28;22.20;;;18.90;99.90;;;;;;5116397;28;20558;-71
2021/07/15 05:12:15;;;;;;;47.45;23.60;;;18.80;99.90;;;;;;5116719;28;20043;-71
2021/07/15 05:14:41;;;;;;;43.75;21.85;;;18.80;99.90;;;;;;5116880;28;20039;-71
2021/07/15 05:17:10;;;;;;;44.38;24.33;;;18.80;99.90;;;;;;5116582;28;20138;-71
2021/07/15 05:19:36;;;;;;;40.92;21.02;;;18.80;99.90;;;;;;5116252;28;20088;-71
2021/07/15 05:22:03;;;;;;;41.28;21.17;;;18.90;99.90;;;;;;5116857;27;20039;-71
2021/07/15 05:24:29;;;;;;;41.03;21.08;;;18.80;99.90;;;;;;5116732;28;20039;-71
2021/07/15 05:26:55;;;;;;;38.80;22.15;;;18.80;99.90;;;;;;5116552;28;20092;-71
2021/07/15 05:29:20;;;;;;;37.08;20.83;;;18.80;99.90;;;;;;5116001;28;20145;-71
2021/07/15 05:31:46;;;;;;;40.55;21.65;;;18.80;99.90;;;;;;5116276;28;20494;-71
2021/07/15 05:34:14;;;;;;;38.53;21.15;;;18.80;99.90;;;;;;5116550;28;20104;-71
2021/07/15 05:36:40;;;;;;;39.00;20.35;;;18.80;99.90;;;;;;5116398;28;20093;-71
2021/07/15 05:39:06;;;;;;;35.30;19.58;;;18.80;99.90;;;;;;5116144;28;20036;-71
2021/07/15 05:41:31;;;;;;;43.20;20.95;;;18.80;99.90;;;;;;5116189;28;20035;-71
2021/07/15 05:43:57;;;;;;;40.05;21.10;;;18.80;99.90;;;;;;5116135;28;20040;-71
2021/07/15 05:46:23;;;;;;;39.13;21.20;;;18.80;99.90;;;;;;5116129;28;20097;-71
2021/07/15 05:48:49;;;;;;;42.30;22.88;;;18.80;99.90;;;;;;5115916;28;20039;-70
2021/07/15 05:51:14;;;;;;;47.35;23.80;;;18.80;99.90;;;;;;5115996;28;20040;-71
2021/07/15 05:53:40;;;;;;;43.20;22.92;;;18.80;99.90;;;;;;5116074;28;20043;-71
2021/07/15 05:56:06;;;;;;;44.78;22.30;;;18.80;99.90;;;;;;5116083;28;20039;-71
2021/07/15 05:58:32;;;;;;;41.97;22.35;;;18.80;99.90;;;;;;5116095;28;20044;-73
2021/07/15 06:00:57;;;;;;;45.25;22.98;;;18.70;99.90;;;;;;5114494;28;20046;-71
2021/07/15 06:03:23;;;;;;;38.45;23.02;;;18.80;99.90;;;;;;5115718;28;20040;-72
2021/07/15 06:05:49;;;;;;;42.60;21.95;;;18.80;99.90;;;;;;5116024;28;20039;-72
2021/07/15 06:08:15;;;;;;;39.60;23.10;;;18.80;99.90;;;;;;5116151;28;20040;-71
2021/07/15 06:10:41;;;;;;;40.78;22.92;;;18.80;99.90;;;;;;5115735;28;20040;-71
2021/07/15 06:13:07;;;;;;;46.83;24.50;;;18.80;99.90;;;;;;5114570;28;20044;-71
2021/07/15 06:15:32;;;;;;;48.72;24.65;;;18.80;99.90;;;;;;5115519;28;20059;-71
2021/07/15 06:17:58;;;;;;;39.47;23.92;;;18.80;99.90;;;;;;5115809;28;20115;-71
2021/07/15 06:20:24;;;;;;;47.40;23.05;;;18.80;99.90;;;;;;5115088;28;20042;-71
2021/07/15 06:22:50;;;;;;;42.08;22.52;;;18.80;99.90;;;;;;5115448;28;20035;-71
2021/07/15 06:25:15;;;;;;;35.85;19.60;;;18.80;99.90;;;;;;5115382;28;20036;-71
2021/07/15 06:27:47;;;;;;;44.90;21.20;;;18.80;99.90;;;;;;5115248;28;20548;-71
2021/07/15 06:30:13;;;;;;;36.22;17.27;;;18.80;99.90;;;;;;5114865;28;20044;-72
2021/07/15 06:32:39;;;;;;;31.95;16.27;;;18.80;99.90;;;;;;5115072;28;20054;-72
2021/07/15 06:35:07;;;;;;;59.30;36.53;;;18.80;99.90;;;;;;5115249;28;20111;-71
2021/07/15 06:37:39;;;;;;;35.95;17.90;;;18.80;99.90;;;;;;5115206;28;20510;-71
2021/07/15 06:40:10;;;;;;;30.55;16.20;;;18.80;99.90;;;;;;5114793;28;20043;-71
2021/07/15 06:42:37;;;;;;;36.15;16.83;;;18.80;99.90;;;;;;5115240;28;20040;-71
2021/07/15 06:45:06;;;;;;;25.08;16.58;;;18.80;99.90;;;;;;5115176;28;20040;-71
2021/07/15 06:47:32;;;;;;;33.13;17.88;;;18.80;99.90;;;;;;5114785;28;20027;-71
2021/07/15 06:49:57;;;;;;;32.85;17.33;;;18.70;99.90;;;;;;5114956;28;20036;-69
2021/07/15 06:52:24;;;;;;;30.00;16.80;;;18.80;99.90;;;;;;5114791;28;20096;-71
2021/07/15 06:54:53;;;;;;;30.35;17.15;;;18.70;99.90;;;;;;5114607;28;20031;-71
2021/07/15 06:57:19;;;;;;;28.33;16.33;;;18.70;99.90;;;;;;5115032;28;20089;-70
2021/07/15 06:59:44;;;;;;;27.67;15.25;;;18.70;99.90;;;;;;5114417;28;20441;-70
2021/07/15 07:02:10;;;;;;;30.42;16.80;;;18.70;99.90;;;;;;5114671;28;20042;-70
2021/07/15 07:04:36;;;;;;;28.52;16.77;;;18.70;99.90;;;;;;5114775;28;20097;-70
2021/07/15 07:07:02;;;;;;;28.25;15.00;;;18.70;99.90;;;;;;5114933;28;20070;-70
2021/07/15 07:09:28;;;;;;;28.60;16.50;;;18.60;99.90;;;;;;5114667;28;20040;-70
2021/07/15 07:11:53;;;;;;;32.78;16.20;;;18.60;99.90;;;;;;5114288;28;20448;-70
2021/07/15 07:14:19;;;;;;;27.88;15.88;;;18.60;99.90;;;;;;5114469;28;20100;-70
2021/07/15 07:16:45;;;;;;;30.95;15.95;;;18.60;99.90;;;;;;5100825;28;20081;-70
2021/07/15 07:19:10;;;;;;;32.20;16.25;;;18.50;99.90;;;;;;5093805;28;20047;-70
2021/07/15 07:21:36;;;;;;;40.70;17.45;;;18.50;99.90;;;;;;5093996;28;20039;-71
2021/07/15 07:24:02;;;;;;;34.90;17.55;;;18.50;99.90;;;;;;5093771;28;20114;-71
2021/07/15 07:26:28;;;;;;;36.65;15.70;;;18.40;99.90;;;;;;5094042;28;20036;-71
2021/07/15 07:28:53;;;;;;;30.08;15.63;;;18.40;99.90;;;;;;5093567;28;20036;-71
2021/07/15 07:31:19;;;;;;;31.08;14.85;;;18.30;99.90;;;;;;5093689;28;20054;-70
2021/07/15 07:33:45;;;;;;;33.03;15.77;;;18.30;99.90;;;;;;5093863;28;20044;-69
2021/07/15 07:36:10;;;;;;;31.20;15.75;;;18.30;99.90;;;;;;5093722;28;20107;-69
2021/07/15 07:38:36;;;;;;;29.80;15.60;;;18.40;99.90;;;;;;5093588;28;20040;-70
2021/07/15 07:41:02;;;;;;;32.88;14.10;;;18.30;99.90;;;;;;5093499;28;20074;-69
2021/07/15 07:43:28;;;;;;;35.25;16.55;;;18.30;99.90;;;;;;5093912;28;20038;-70
2021/07/15 07:45:54;;;;;;;32.53;16.20;;;18.40;99.90;;;;;;5093635;28;20036;-70
2021/07/15 07:48:20;;;;;;;31.23;16.13;;;18.30;99.90;;;;;;5093697;28;20537;-70
2021/07/15 07:50:47;;;;;;;39.25;17.35;;;18.30;99.90;;;;;;5093431;28;20044;-70
2021/07/15 07:53:13;;;;;;;36.42;16.83;;;18.20;99.90;;;;;;5093449;28;20042;-70
2021/07/15 07:55:43;;;;;;;39.90;17.65;;;18.30;99.90;;;;;;5093448;28;20048;-71
2021/07/15 07:58:12;;;;;;;36.33;16.90;;;18.30;99.90;;;;;;5093560;28;20504;-70
2021/07/15 08:00:38;;;;;;;35.13;17.48;;;18.30;99.90;;;;;;5092970;28;20296;-71
2021/07/15 08:03:03;;;;;;;37.40;17.17;;;18.30;99.90;;;;;;5092864;28;20063;-69
2021/07/15 08:05:30;;;;;;;43.15;18.00;;;18.30;99.90;;;;;;5093987;28;20050;-69
2021/07/15 08:07:56;;;;;;;40.92;17.17;;;18.30;99.90;;;;;;5093347;28;20036;-70
2021/07/15 08:10:22;;;;;;;40.15;17.48;;;18.30;99.90;;;;;;5092987;28;20036;-69
2021/07/15 08:12:50;;;;;;;28.48;15.18;;;18.30;99.90;;;;;;5093458;28;20123;-70
2021/07/15 08:15:16;;;;;;;41.70;18.00;;;18.30;99.90;;;;;;5093212;28;20036;-69
2021/07/15 08:17:42;;;;;;;40.00;17.15;;;18.30;99.90;;;;;;5092325;28;20403;-69
2021/07/15 08:20:10;;;;;;;44.00;18.20;;;18.30;99.90;;;;;;5093001;28;20036;-70
2021/07/15 08:22:36;;;;;;;40.83;16.92;;;18.40;99.90;;;;;;5093423;28;20048;-70
2021/07/15 08:25:02;;;;;;;37.58;17.63;;;18.40;99.90;;;;;;5093274;28;20046;-70
2021/07/15 08:27:28;;;;;;;30.48;16.23;;;18.40;99.90;;;;;;5093460;28;20036;-70
2021/07/15 08:29:54;;;;;;;40.88;17.55;;;18.40;99.90;;;;;;5091511;28;20039;-70
2021/07/15 08:32:21;;;;;;;40.90;16.77;;;18.40;99.90;;;;;;5093318;28;20036;-70
2021/07/15 08:34:46;;;;;;;39.97;17.15;;;18.30;99.90;;;;;;5093115;28;20496;-70
2021/07/15 08:37:12;;;;;;;36.92;17.40;;;18.30;99.90;;;;;;5110463;28;20126;-71
2021/07/15 08:39:39;;;;;;;36.50;16.92;;;18.30;99.90;;;;;;5117024;28;20046;-71
2021/07/15 08:42:08;;;;;;;27.02;15.25;;;18.20;99.90;;;;;;5117397;28;20070;-70
2021/07/15 08:44:34;;;;;;;28.83;16.08;;;18.40;99.90;;;;;;5106717;28;20040;-70
2021/07/15 08:47:01;;;;;;;32.55;16.50;;;18.30;99.90;;;;;;5096833;28;20044;-70
2021/07/15 08:49:27;;;;;;;29.13;15.95;;;18.30;99.90;;;;;;5096363;28;20043;-69
2021/07/15 08:51:53;;;;;;;33.08;16.90;;;18.30;99.90;;;;;;5096819;28;20040;-70
2021/07/15 08:54:21;;;;;;;27.50;16.38;;;18.30;99.90;;;;;;5096932;28;20115;-69
2021/07/15 08:56:47;;;;;;;31.27;16.58;;;18.30;99.90;;;;;;5097033;28;20040;-70
2021/07/15 08:59:15;;;;;;;32.17;15.82;;;18.30;99.90;;;;;;5096499;28;20480;-70
2021/07/15 09:01:45;;;;;;;30.23;15.45;;;18.30;99.90;;;;;;5096632;28;20198;-70
2021/07/15 09:04:12;;;;;;;26.30;16.08;;;18.20;99.90;;;;;;5096404;28;20119;-70
2021/07/15 09:06:40;;;;;;;25.65;14.77;;;18.20;99.90;;;;;;5096550;28;20042;-70
2021/07/15 09:09:06;;;;;;;32.78;14.75;;;18.10;99.90;;;;;;5096079;28;20064;-70
2021/07/15 09:11:32;;;;;;;29.70;15.82;;;18.10;99.90;;;;;;5096613;28;20506;-70
2021/07/15 09:14:00;;;;;;;28.45;14.77;;;18.20;99.90;;;;;;5096222;28;20039;-70
2021/07/15 09:16:26;;;;;;;23.70;14.38;;;18.10;99.90;;;;;;5096155;28;20093;-70
2021/07/15 09:19:11;;;;;;;31.10;15.98;;;18.10;99.90;;;;;;5096248;28;20039;-71
2021/07/15 09:21:37;;;;;;;29.20;16.10;;;18.20;99.90;;;;;;5096502;28;20032;-70
2021/07/15 09:24:29;;;;;;;26.35;15.15;;;18.10;99.90;;;;;;5096227;28;20043;-70
2021/07/15 09:26:55;;;;;;;30.63;15.52;;;18.20;99.90;;;;;;5096090;28;20036;-70
2021/07/15 09:29:21;;;;;;;26.48;14.52;;;18.20;99.90;;;;;;5095972;28;20058;-70
2021/07/15 09:32:05;;;;;;;37.85;16.08;;;18.20;99.90;;;;;;5096041;28;20032;-70
2021/07/15 09:34:32;;;;;;;29.95;16.15;;;18.20;99.90;;;;;;5096421;28;20069;-70
2021/07/15 09:37:07;;;;;;;29.13;17.10;;;18.20;99.90;;;;;;5095953;28;20063;-70
2021/07/15 09:39:49;;;;;;;26.00;15.25;;;18.20;99.90;;;;;;5095932;28;20048;-71
2021/07/15 09:42:19;;;;;;;32.25;15.80;;;18.20;99.90;;;;;;5096058;28;20196;-70
2021/07/15 09:44:50;;;;;;;37.63;15.48;;;18.20;99.90;;;;;;5095796;28;20181;-70
2021/07/15 09:47:34;;;;;;;28.85;17.08;;;18.30;99.90;;;;;;5095887;28;20067;-70
2021/07/15 09:50:20;;;;;;;29.95;15.35;;;18.20;99.90;;;;;;5095324;28;20487;-70
2021/07/15 09:52:46;;;;;;;31.67;17.00;;;18.30;99.90;;;;;;5085130;28;20055;-70
2021/07/15 09:55:25;;;;;;;33.13;16.10;;;18.40;99.90;;;;;;5095827;28;20040;-70
2021/07/15 09:58:06;;;;;;;34.67;15.15;;;18.30;99.90;;;;;;5095563;28;20036;-70
2021/07/15 10:00:37;;;;;;;37.90;15.80;;;18.30;99.90;;;;;;5095116;28;20043;-70
2021/07/15 10:03:05;;;;;;;30.75;14.88;;;18.30;99.90;;;;;;5095574;28;20040;-70
2021/07/15 10:05:32;;;;;;;36.33;15.88;;;18.30;99.90;;;;;;5095459;28;20055;-70
2021/07/15 10:08:25;;;;;;;32.42;15.05;;;18.30;99.90;;;;;;5095346;28;20043;-70
2021/07/15 10:10:51;;;;;;;32.50;15.07;;;18.30;99.90;;;;;;5094926;28;20416;-70
2021/07/15 10:13:19;;;;;;;30.60;14.27;;;18.30;99.90;;;;;;5095238;28;20040;-69
2021/07/15 10:15:46;;;;;;;28.17;13.57;;;18.30;99.90;;;;;;5094651;28;20060;-71
2021/07/15 10:18:12;;;;;;;32.20;14.38;;;18.40;99.90;;;;;;5095585;28;20040;-70
2021/07/15 10:20:53;;;;;;;28.85;13.65;;;18.50;99.90;;;;;;5115007;28;20491;-70
2021/07/15 10:23:36;;;;;;;30.38;12.30;;;18.50;99.90;;;;;;5115370;28;20043;-71
2021/07/15 10:26:03;;;;;;;30.50;13.88;;;18.50;99.90;;;;;;5115187;28;20043;-70
2021/07/15 10:28:30;;;;;;;30.27;12.73;;;18.50;99.90;;;;;;5115359;28;20419;-71
2021/07/15 10:31:04;;;;;;;30.80;14.05;;;18.60;99.90;;;;;;5115069;27;20501;-71
2021/07/15 10:33:30;;;;;;;29.02;15.02;;;18.60;99.90;;;;;;5115091;28;20050;-70
2021/07/15 10:36:01;;;;;;;33.85;12.95;;;18.70;99.90;;;;;;5115338;28;20035;-70
2021/07/15 10:38:28;;;;;;;25.65;12.88;;;18.70;99.90;;;;;;5114915;28;20070;-70
2021/07/15 10:40:55;;;;;;;34.72;13.85;;;18.80;99.90;;;;;;5113789;28;20491;-71
2021/07/15 10:43:21;;;;;;;37.30;15.60;;;18.80;99.90;;;;;;5114924;28;20067;-70
2021/07/15 10:45:47;;;;;;;34.60;13.65;;;18.70;99.90;;;;;;5114796;28;20070;-71
2021/07/15 10:48:15;;;;;;;30.92;13.95;;;18.80;99.90;;;;;;5115505;28;20527;-71
2021/07/15 10:50:43;;;;;;;28.00;14.13;;;18.70;99.90;;;;;;5096308;28;20043;-70
2021/07/15 10:53:09;;;;;;;28.77;13.52;;;18.70;99.90;;;;;;5114963;28;20052;-69
2021/07/15 10:55:36;;;;;;;29.92;12.07;;;18.80;99.90;;;;;;5115066;28;20040;-70
2021/07/15 10:58:03;;;;;;;26.05;13.23;;;18.80;99.90;;;;;;5112978;28;20043;-70
2021/07/15 11:00:30;;;;;;;28.40;13.02;;;18.70;99.90;;;;;;5110630;28;20035;-71
2021/07/15 11:03:17;;;;;;;23.42;12.63;;;18.70;99.90;;;;;;5109787;28;20035;-71
2021/07/15 11:06:01;;;;;;;29.40;13.27;;;18.80;99.90;;;;;;5114612;28;20115;-71
2021/07/15 11:09:00;;;;;;;32.13;13.05;;;18.90;99.90;;;;;;5114425;28;20112;-70
2021/07/15 11:11:32;;;;;;;31.48;13.13;;;19.00;99.90;;;;;;5091743;28;20055;-71
2021/07/15 11:13:58;;;;;;;27.33;11.50;;;19.10;99.90;;;;;;5114458;28;20031;-71
2021/07/15 11:16:46;;;;;;;28.20;11.80;;;19.00;99.90;;;;;;5114416;28;20089;-70
2021/07/15 11:19:33;;;;;;;28.80;12.30;;;19.00;99.90;;;;;;5113979;28;20035;-70
2021/07/15 11:21:59;;;;;;;23.02;12.07;;;19.00;99.90;;;;;;5114123;28;20035;-70
2021/07/15 11:24:41;;;;;;;23.65;11.80;;;18.90;99.90;;;;;;5114312;28;20111;-71
2021/07/15 11:27:29;;;;;;;22.88;10.93;;;18.90;99.90;;;;;;5114635;28;20081;-70
2021/07/15 11:29:55;;;;;;;23.33;11.82;;;18.90;99.90;;;;;;5112619;28;20039;-71
2021/07/15 11:32:26;;;;;;;29.27;11.10;;;18.80;99.90;;;;;;5114539;28;20375;-70
2021/07/15 11:34:54;;;;;;;25.80;11.27;;;18.70;99.90;;;;;;5114190;28;20110;-70
2021/07/15 11:37:25;;;;;;;24.20;11.52;;;18.70;99.90;;;;;;5113780;28;20507;-71
2021/07/15 11:39:55;;;;;;;27.77;12.25;;;18.70;99.90;;;;;;5113896;28;20114;-70
2021/07/15 11:42:23;;;;;;;20.63;12.07;;;18.70;99.90;;;;;;5113742;28;20399;-70
2021/07/15 11:45:03;;;;;;;33.65;13.13;;;18.80;99.90;;;;;;5112900;28;20122;-71
2021/07/15 11:47:47;;;;;;;21.65;12.30;;;18.80;99.90;;;;;;5113141;28;20062;-71
2021/07/15 11:50:33;;;;;;;26.40;12.60;;;18.70;99.90;;;;;;5113350;28;20040;-71
2021/07/15 11:53:19;;;;;;;30.25;13.13;;;18.70;99.90;;;;;;5113261;28;20039;-71
2021/07/15 11:55:54;;;;;;;26.83;11.75;;;18.70;99.90;;;;;;5114147;28;20043;-71
2021/07/15 11:58:39;;;;;;;28.55;12.55;;;18.70;99.90;;;;;;5113477;28;20054;-71
2021/07/15 12:01:22;;;;;;;23.33;12.27;;;18.60;99.90;;;;;;5113781;28;20062;-71
2021/07/15 12:04:04;;;;;;;26.77;12.43;;;18.60;99.90;;;;;;5114080;28;20089;-71
2021/07/15 12:06:36;;;;;;;27.25;13.68;;;18.70;99.90;;;;;;5114084;28;20116;-71
2021/07/15 12:09:12;;;;;;;19.90;12.25;;;18.70;99.90;;;;;;5113464;28;20044;-71
2021/07/15 12:11:40;;;;;;;23.80;12.70;;;18.70;99.90;;;;;;5115658;28;20047;-71
2021/07/15 12:14:07;;;;;;;26.17;11.70;;;18.70;99.90;;;;;;5118061;28;20479;-71
2021/07/15 12:16:35;;;;;;;28.63;12.63;;;18.70;99.90;;;;;;5117911;28;20494;-71
2021/07/15 12:19:07;;;;;;;22.67;12.23;;;18.70;99.90;;;;;;5117733;28;20041;-71
2021/07/15 12:21:35;;;;;;;27.52;12.82;;;18.70;99.90;;;;;;5117685;28;20035;-70
2021/07/15 12:24:15;;;;;;;27.95;13.82;;;18.70;99.90;;;;;;5118213;28;20036;-71
2021/07/15 12:26:42;;;;;;;25.45;13.48;;;18.70;99.90;;;;;;5117995;28;20028;-71
2021/07/15 12:29:15;;;;;;;29.48;13.48;;;18.70;99.90;;;;;;5116388;28;20089;-71
2021/07/15 12:31:43;;;;;;;22.13;13.65;;;18.70;99.90;;;;;;5118134;27;20040;-71
2021/07/15 12:34:10;;;;;;;30.88;13.98;;;18.70;99.90;;;;;;5117563;28;20039;-71
2021/07/15 12:36:39;;;;;;;24.60;12.88;;;18.70;99.90;;;;;;5118070;28;20040;-70
2021/07/15 12:39:10;;;;;;;27.90;13.70;;;18.70;99.90;;;;;;5117168;27;20046;-71
2021/07/15 12:41:42;;;;;;;25.10;13.65;;;18.70;99.90;;;;;;5117295;28;20475;-71